Time;durP1;ratioP1;P1;durP2;ratioP2;P2;SDS_P1;SDS_P2;PMS_P1;PMS_P2;Temp;Humidity;BMP_temperature;BMP_pressure;BME280_temperature;BME280_humidity;BME280_pressure;Samples;Min_cycle;Max_cycle;Signal;HPM_P1;HPM_P2
2024/03/05 00:00:39;;;;;;;67.40;36.70;;;;;;;5.60;91.63;99705.61;134816;1292;22244;-76
2024/03/05 00:03:40;;;;;;;75.70;39.50;;;;;;;5.64;91.63;99704.77;134824;1300;22413;-76
2024/03/05 00:06:41;;;;;;;78.00;38.50;;;;;;;5.65;91.69;99705.93;134840;1295;22459;-76
2024/03/05 00:09:42;;;;;;;76.80;41.30;;;;;;;5.66;91.65;99707.57;134850;1296;22378;-76
2024/03/05 00:12:42;;;;;;;83.20;39.60;;;;;;;5.64;91.62;99705.77;134819;1300;22241;-76
2024/03/05 00:15:43;;;;;;;88.80;43.20;;;;;;;5.63;91.67;99705.58;134864;1300;22286;-76
2024/03/05 00:18:45;;;;;;;82.40;42.00;;;;;;;5.61;91.77;99703.11;134868;1298;22359;-76
2024/03/05 00:21:46;;;;;;;90.00;44.00;;;;;;;5.59;91.83;99701.20;134831;1295;22507;-76
2024/03/05 00:24:47;;;;;;;83.70;41.30;;;;;;;5.54;91.99;99703.45;134653;1295;22307;-76
2024/03/05 00:27:48;;;;;;;81.00;41.70;;;;;;;5.48;91.83;99703.14;134661;1294;22423;-76
2024/03/05 00:30:49;;;;;;;88.20;41.10;;;;;;;5.44;92.01;99702.63;134579;1295;23332;-76
2024/03/05 00:33:49;;;;;;;80.50;41.70;;;;;;;5.40;91.97;99704.48;134662;1294;22971;-77
2024/03/05 00:36:50;;;;;;;82.00;41.10;;;;;;;5.39;91.88;99708.00;134689;1294;23113;-76
2024/03/05 00:39:50;;;;;;;81.30;39.80;;;;;;;5.38;91.88;99709.43;134674;1297;22497;-76
2024/03/05 00:42:52;;;;;;;87.50;41.50;;;;;;;5.39;92.04;99707.43;134663;1301;22408;-76
2024/03/05 00:45:52;;;;;;;88.10;41.80;;;;;;;5.41;91.99;99710.96;134651;1294;22457;-76
2024/03/05 00:48:53;;;;;;;88.90;43.70;;;;;;;5.38;92.02;99715.45;134612;1301;22474;-76
2024/03/05 00:51:53;;;;;;;92.10;43.50;;;;;;;5.39;91.90;99718.09;134642;1301;22356;-76
2024/03/05 00:54:54;;;;;;;95.00;46.10;;;;;;;5.41;91.91;99721.45;134648;1297;23509;-76
2024/03/05 00:57:55;;;;;;;;;;;;;;;5.43;91.83;99722.38;134678;1301;22413;-76
2024/03/05 01:00:55;;;;;;;80.60;41.50;;;;;;;5.38;91.88;99720.55;134651;1295;23151;-77
2024/03/05 01:03:56;;;;;;;86.20;42.30;;;;;;;5.29;91.48;99724.33;134658;1301;22374;-76
2024/03/05 01:06:59;;;;;;;88.40;41.60;;;;;;;5.27;91.96;99724.02;134651;1294;22415;-76
2024/03/05 01:09:59;;;;;;;89.20;41.70;;;;;;;5.28;91.81;99726.35;134663;1301;22469;-76
2024/03/05 01:13:00;;;;;;;84.60;41.70;;;;;;;5.31;92.20;99726.46;134677;1301;22372;-76
2024/03/05 01:16:01;;;;;;;87.30;40.80;;;;;;;5.28;91.78;99727.25;134663;1301;22492;-76
2024/03/05 01:19:01;;;;;;;85.70;41.60;;;;;;;5.24;91.74;99723.93;134691;1294;22507;-76
2024/03/05 01:22:02;;;;;;;88.40;41.20;;;;;;;5.25;91.82;99725.78;134717;1296;23517;-77
2024/03/05 01:25:07;;;;;;;88.90;42.30;;;;;;;5.27;91.94;99724.50;134902;1292;22461;-77
2024/03/05 01:28:07;;;;;;;91.50;43.30;;;;;;;5.28;91.91;99725.70;134851;1300;22881;-76
2024/03/05 01:31:08;;;;;;;97.80;44.00;;;;;;;5.26;91.94;99725.11;134847;1295;22397;-76
2024/03/05 01:34:09;;;;;;;87.90;43.20;;;;;;;5.24;91.92;99725.86;134793;1289;23404;-76
2024/03/05 01:37:13;;;;;;;89.80;42.00;;;;;;;5.21;91.84;99728.58;134690;1292;22356;-76
2024/03/05 01:40:14;;;;;;;88.30;42.70;;;;;;;5.18;91.78;99728.85;134850;1295;22960;-76
2024/03/05 01:43:14;;;;;;;86.60;40.10;;;;;;;5.14;91.65;99728.33;134862;1298;23442;-76
2024/03/05 01:46:17;;;;;;;82.90;39.50;;;;;;;5.08;91.71;99726.11;134839;1300;23203;-77
2024/03/05 01:49:20;;;;;;;81.90;40.30;;;;;;;5.05;91.94;99731.60;134851;1300;22530;-76
2024/03/05 01:52:21;;;;;;;84.60;39.70;;;;;;;5.04;92.01;99731.58;134830;1293;22545;-76
2024/03/05 01:55:23;;;;;;;85.00;38.40;;;;;;;5.05;91.91;99733.38;134848;1300;23022;-77
2024/03/05 01:58:25;;;;;;;79.30;38.10;;;;;;;5.08;91.84;99735.75;134867;1300;22434;-77
2024/03/05 02:01:26;;;;;;;76.60;37.60;;;;;;;5.10;91.80;99734.67;134865;1300;22446;-76
2024/03/05 02:04:28;;;;;;;84.60;40.40;;;;;;;5.15;91.95;99731.78;134839;1293;22529;-76
2024/03/05 02:07:29;;;;;;;89.60;42.70;;;;;;;5.14;91.85;99734.33;134854;1292;22361;-77
2024/03/05 02:10:29;;;;;;;;;;;;;;;5.11;91.84;99736.70;134875;1292;22454;-77
2024/03/05 02:13:31;;;;;;;86.30;42.20;;;;;;;5.06;91.86;99734.34;134869;1295;23032;-76
2024/03/05 02:16:31;;;;;;;88.00;43.70;;;;;;;5.00;91.87;99737.04;134875;1300;22428;-76
2024/03/05 02:19:33;;;;;;;102.40;44.70;;;;;;;4.97;92.08;99734.88;134845;1292;22255;-77
2024/03/05 02:22:34;;;;;;;87.40;43.00;;;;;;;4.93;92.09;99736.58;134852;1293;22944;-77
2024/03/05 02:25:35;;;;;;;98.70;44.60;;;;;;;4.94;92.18;99733.16;134877;1295;23122;-76
2024/03/05 02:28:38;;;;;;;;;;;;;;;4.98;92.20;99738.48;134882;1300;22515;-77
2024/03/05 02:31:38;;;;;;;88.30;42.40;;;;;;;5.00;92.25;99739.99;134862;1295;22361;-77
2024/03/05 02:34:39;;;;;;;83.40;40.20;;;;;;;5.01;92.14;99744.62;134880;1292;22386;-77
2024/03/05 02:37:41;;;;;;;81.20;40.00;;;;;;;5.03;91.99;99747.24;134882;1293;22391;-76
2024/03/05 02:40:41;;;;;;;87.70;41.00;;;;;;;5.01;92.12;99751.35;134858;1297;23253;-76
2024/03/05 02:43:44;;;;;;;88.90;44.50;;;;;;;4.98;92.14;99755.45;134817;1293;22472;-76
2024/03/05 02:46:45;;;;;;;91.80;43.80;;;;;;;4.95;92.26;99760.56;134831;1294;22285;-76
2024/03/05 02:49:46;;;;;;;90.90;43.80;;;;;;;4.93;92.20;99767.63;134855;1292;22351;-76
2024/03/05 02:52:48;;;;;;;94.50;42.90;;;;;;;4.88;92.45;99765.97;134834;1292;22372;-76
2024/03/05 02:55:49;;;;;;;96.00;44.00;;;;;;;4.84;92.43;99769.29;134837;1292;22275;-76
2024/03/05 02:58:50;;;;;;;87.10;42.00;;;;;;;4.86;92.52;99771.41;134853;1300;23207;-76
2024/03/05 03:01:50;;;;;;;84.40;39.40;;;;;;;4.89;92.51;99773.92;134853;1292;23127;-77
2024/03/05 03:04:51;;;;;;;79.90;38.90;;;;;;;4.89;92.36;99775.52;134857;1293;23136;-76
2024/03/05 03:07:51;;;;;;;74.20;34.40;;;;;;;4.89;92.41;99773.09;134865;1295;23101;-76
2024/03/05 03:10:52;;;;;;;67.30;33.90;;;;;;;4.91;92.52;99779.49;134898;1300;22287;-76
2024/03/05 03:13:53;;;;;;;70.20;33.60;;;;;;;4.92;92.47;99778.00;134865;1298;23218;-77
2024/03/05 03:16:54;;;;;;;55.80;31.70;;;;;;;4.94;92.45;99777.49;134859;1300;22434;-76
2024/03/05 03:19:54;;;;;;;61.10;32.00;;;;;;;4.94;92.53;99772.58;134843;1300;23361;-76
2024/03/05 03:22:55;;;;;;;60.40;33.00;;;;;;;4.97;92.43;99773.91;134762;1292;22373;-76
2024/03/05 03:25:58;;;;;;;56.10;31.70;;;;;;;4.95;92.61;99773.05;134666;1294;22485;-76
2024/03/05 03:28:58;;;;;;;62.20;33.80;;;;;;;4.92;92.65;99774.54;134676;1294;22442;-76
2024/03/05 03:31:59;;;;;;;51.00;29.60;;;;;;;4.92;92.63;99774.88;134668;1294;23220;-76
2024/03/05 03:34:59;;;;;;;53.50;30.30;;;;;;;4.95;92.62;99774.29;134661;1301;22771;-76
2024/03/05 03:38:00;;;;;;;57.70;29.20;;;;;;;4.95;92.55;99776.20;134685;1301;23263;-76
2024/03/05 03:41:01;;;;;;;;;;;;;;;4.98;92.76;99774.70;134695;1294;22447;-76
2024/03/05 03:44:01;;;;;;;45.60;24.50;;;;;;;4.95;92.62;99772.91;134693;1301;22523;-76
2024/03/05 03:47:02;;;;;;;46.50;25.40;;;;;;;4.89;92.25;99781.29;134688;1301;22538;-76
2024/03/05 03:50:02;;;;;;;43.60;25.10;;;;;;;4.87;92.62;99774.63;134685;1301;22409;-76
2024/03/05 03:53:04;;;;;;;47.40;27.70;;;;;;;4.88;92.44;99776.98;134689;1301;23302;-76
2024/03/05 03:56:05;;;;;;;46.40;26.30;;;;;;;4.86;92.29;99778.78;134673;1301;23218;-76
2024/03/05 03:59:05;;;;;;;49.90;27.70;;;;;;;4.79;92.28;99783.92;134711;1301;22376;-76
2024/03/05 04:02:06;;;;;;;50.00;30.10;;;;;;;4.77;92.42;99785.39;134624;1301;22393;-76
2024/03/05 04:05:09;;;;;;;49.80;27.40;;;;;;;4.77;92.77;99788.14;134686;1301;22229;-76
2024/03/05 04:08:10;;;;;;;46.20;27.10;;;;;;;4.82;92.73;99786.70;134660;1301;22423;-76
2024/03/05 04:11:10;;;;;;;45.50;25.60;;;;;;;4.86;92.56;99789.63;134657;1294;23179;-76
2024/03/05 04:14:11;;;;;;;40.60;23.20;;;;;;;4.85;92.54;99787.11;134681;1287;22272;-76
2024/03/05 04:17:14;;;;;;;38.90;23.00;;;;;;;4.79;92.42;99795.35;134684;1297;22221;-77
2024/03/05 04:20:15;;;;;;;40.70;22.30;;;;;;;4.77;92.38;99796.27;134686;1301;22464;-77
2024/03/05 04:23:15;;;;;;;37.90;21.70;;;;;;;4.76;92.29;99798.07;134677;1301;22471;-76
2024/03/05 04:26:23;;;;;;;36.60;22.20;;;;;;;4.73;92.40;99798.14;134691;1294;22476;-76
2024/03/05 04:29:29;;;;;;;37.50;23.00;;;;;;;4.72;92.33;99799.30;134675;1301;22412;-76
2024/03/05 04:32:30;;;;;;;43.50;25.60;;;;;;;4.76;92.56;99802.84;134687;1294;22409;-76
2024/03/05 04:35:31;;;;;;;42.60;26.00;;;;;;;4.75;92.50;99806.94;134662;1294;22340;-76
2024/03/05 04:38:32;;;;;;;37.60;24.30;;;;;;;4.73;92.40;99807.08;134552;1294;22262;-77
2024/03/05 04:41:33;;;;;;;36.00;23.40;;;;;;;4.70;92.13;99808.59;134690;1301;23126;-76
2024/03/05 04:44:34;;;;;;;36.50;22.90;;;;;;;4.68;92.38;99812.80;134704;1301;23195;-77
2024/03/05 04:47:35;;;;;;;35.20;20.90;;;;;;;4.65;92.13;99816.58;134692;1294;23039;-76
2024/03/05 04:50:37;;;;;;;33.30;21.80;;;;;;;4.64;91.96;99819.06;134700;1294;23336;-77
2024/03/05 04:53:38;;;;;;;35.50;20.60;;;;;;;4.65;92.28;99816.75;134704;1294;22969;-78
2024/03/05 04:56:38;;;;;;;30.60;19.60;;;;;;;4.64;91.88;99817.34;134694;1301;22500;-77
2024/03/05 04:59:42;;;;;;;30.80;19.60;;;;;;;4.63;92.16;99816.16;134692;1301;22473;-78
2024/03/05 05:02:42;;;;;;;39.40;22.20;;;;;;;4.59;92.16;99820.80;134695;1294;23285;-77
2024/03/05 05:05:43;;;;;;;33.60;21.10;;;;;;;4.60;91.99;99821.96;134681;1294;22307;-77
2024/03/05 05:08:45;;;;;;;39.20;22.50;;;;;;;4.58;92.16;99821.41;134682;1294;22327;-78
2024/03/05 05:11:46;;;;;;;31.20;21.00;;;;;;;4.56;92.27;99821.43;134656;1294;22423;-77
2024/03/05 05:14:47;;;;;;;35.80;22.30;;;;;;;4.56;92.19;99823.31;134692;1294;22454;-77
2024/03/05 05:17:48;;;;;;;36.80;21.00;;;;;;;4.61;92.44;99824.14;134693;1299;22387;-78
2024/03/05 05:20:50;;;;;;;34.20;20.50;;;;;;;4.62;92.24;99823.31;134676;1294;22458;-77
2024/03/05 05:23:51;;;;;;;32.00;21.00;;;;;;;4.65;92.46;99825.16;134679;1295;23126;-77
2024/03/05 05:26:52;;;;;;;35.80;22.20;;;;;;;4.63;92.40;99828.31;134876;1295;22237;-77
2024/03/05 05:29:53;;;;;;;34.60;21.00;;;;;;;4.64;92.41;99827.66;134855;1295;23213;-80
2024/03/05 05:32:54;;;;;;;38.30;23.40;;;;;;;4.61;92.20;99834.09;134860;1300;22399;-80
2024/03/05 05:35:55;;;;;;;37.00;22.80;;;;;;;4.59;92.52;99834.95;134897;1292;22426;-81
2024/03/05 05:38:58;;;;;;;40.70;24.10;;;;;;;4.60;92.37;99837.21;134884;1295;22413;-81
2024/03/05 05:41:59;;;;;;;39.80;24.10;;;;;;;4.58;92.33;99838.90;134882;1300;22408;-79
2024/03/05 05:44:59;;;;;;;43.10;25.50;;;;;;;4.54;92.26;99842.06;134825;1294;22470;-78
2024/03/05 05:48:00;;;;;;;40.60;22.70;;;;;;;4.52;92.22;99846.65;134856;1297;22141;-79
2024/03/05 05:51:09;;;;;;;40.80;24.80;;;;;;;4.54;92.60;99844.88;134890;1300;22477;-79
2024/03/05 05:54:10;;;;;;;45.10;23.50;;;;;;;4.58;92.70;99845.02;134868;1278;22206;-79
2024/03/05 05:57:11;;;;;;;37.80;21.40;;;;;;;4.55;92.59;99848.48;134910;1300;22412;-79
2024/03/05 06:00:22;;;;;;;38.70;22.30;;;;;;;4.49;92.49;99845.13;134881;1300;22193;-80
2024/03/05 06:03:24;;;;;;;34.80;21.60;;;;;;;4.45;92.49;99846.71;134857;1293;22355;-78
2024/03/05 06:06:27;;;;;;;34.30;21.60;;;;;;;4.43;92.29;99853.67;134874;1300;22262;-80
2024/03/05 06:09:28;;;;;;;39.10;21.90;;;;;;;4.39;92.36;99852.98;134874;1295;22269;-80
2024/03/05 06:12:31;;;;;;;52.30;26.10;;;;;;;4.32;92.20;99857.27;134849;1300;22428;-80
2024/03/05 06:15:32;;;;;;;47.60;28.10;;;;;;;4.29;92.42;99859.64;134695;1291;22436;-80
2024/03/05 06:18:33;;;;;;;43.30;27.00;;;;;;;4.30;92.64;99863.42;134891;1296;22586;-79
2024/03/05 06:21:34;;;;;;;33.40;20.70;;;;;;;4.34;92.52;99866.54;134882;1293;23086;-79
2024/03/05 06:24:35;;;;;;;33.40;19.40;;;;;;;4.32;92.42;99866.41;134856;1300;22371;-79
2024/03/05 06:27:39;;;;;;;33.60;18.90;;;;;;;4.32;92.51;99873.91;134887;1300;22364;-79
2024/03/05 06:30:45;;;;;;;30.80;18.40;;;;;;;4.37;92.72;99870.50;134875;1292;22447;-80
2024/03/05 06:33:46;;;;;;;31.60;18.80;;;;;;;4.41;92.74;99874.38;134859;1295;23006;-79
2024/03/05 06:36:53;;;;;;;30.40;18.40;;;;;;;4.38;92.72;99873.21;134872;1300;22643;-80
2024/03/05 06:39:54;;;;;;;28.50;18.00;;;;;;;4.31;92.63;99877.34;134867;1286;22360;-79
2024/03/05 06:43:20;;;;;;;32.70;17.80;;;;;;;4.20;92.63;99881.61;134882;1297;22344;-79
2024/03/05 06:46:29;;;;;;;32.60;18.90;;;;;;;4.14;93.00;99886.34;134822;1292;23455;-79
2024/03/05 06:49:38;;;;;;;27.90;17.50;;;;;;;4.15;93.10;99883.98;134610;1293;22502;-79
2024/03/05 06:59:18;;;;;;;32.50;20.30;;;;;;;4.27;93.21;99889.06;134867;1300;22489;-77
2024/03/05 07:02:19;;;;;;;33.20;19.70;;;;;;;4.29;93.43;99890.66;134848;1292;22340;-79
2024/03/05 07:05:21;;;;;;;27.30;17.90;;;;;;;4.33;93.64;99896.06;134767;1293;23335;-80
2024/03/05 07:08:22;;;;;;;34.90;18.30;;;;;;;4.38;93.65;99898.45;134736;1292;22426;-81
2024/03/05 07:11:25;;;;;;;26.30;17.20;;;;;;;4.42;93.73;99902.98;134767;1296;22345;-80
2024/03/05 07:14:26;;;;;;;30.30;18.20;;;;;;;4.44;93.58;99905.28;134595;1293;22439;-80
2024/03/05 07:17:27;;;;;;;30.20;17.40;;;;;;;4.50;93.68;99909.15;134804;1294;22321;-81
2024/03/05 07:20:29;;;;;;;27.80;16.80;;;;;;;4.56;93.66;99913.05;134820;1295;23611;-81
2024/03/05 07:23:32;;;;;;;27.10;15.00;;;;;;;4.52;93.26;99912.17;134715;1295;23226;-80
2024/03/05 07:26:34;;;;;;;;;;;;;;;4.44;93.41;99915.08;134650;1301;23008;-81
2024/03/05 07:29:35;;;;;;;24.00;14.20;;;;;;;4.48;93.66;99918.05;134689;1294;22270;-80
2024/03/05 07:32:35;;;;;;;19.70;12.50;;;;;;;4.56;93.18;99923.56;134661;1294;22945;-80
2024/03/05 07:35:36;;;;;;;20.10;12.20;;;;;;;4.59;92.94;99925.00;134665;1294;22393;-80
2024/03/05 07:38:38;;;;;;;22.80;12.90;;;;;;;4.62;92.71;99924.95;134644;1295;22375;-81
2024/03/05 07:41:41;;;;;;;21.80;12.70;;;;;;;4.65;92.81;99927.11;134590;1295;22405;-80
2024/03/05 07:44:42;;;;;;;21.80;13.40;;;;;;;4.66;92.36;99928.43;134683;1301;22529;-80
2024/03/05 07:47:46;;;;;;;21.90;13.30;;;;;;;4.72;92.39;99934.54;134633;1301;23479;-80
2024/03/05 07:50:48;;;;;;;26.00;15.30;;;;;;;4.78;92.53;99935.94;134624;1294;22375;-81
2024/03/05 07:53:49;;;;;;;23.80;14.10;;;;;;;4.84;92.27;99942.45;134628;1295;22264;-81
2024/03/05 07:56:49;;;;;;;21.60;13.20;;;;;;;4.84;91.94;99940.15;134643;1297;22429;-80
2024/03/05 07:59:50;;;;;;;21.90;13.30;;;;;;;4.86;91.92;99942.46;134642;1301;22271;-81
2024/03/05 08:02:55;;;;;;;21.00;13.50;;;;;;;4.86;91.52;99945.42;134666;1294;22233;-81
2024/03/05 08:05:57;;;;;;;21.10;13.80;;;;;;;4.85;91.31;99940.67;134648;1294;22423;-81
2024/03/05 08:08:59;;;;;;;18.90;12.60;;;;;;;4.81;91.02;99947.30;134635;1301;23210;-81
2024/03/05 08:12:00;;;;;;;24.10;14.30;;;;;;;4.75;90.61;99946.73;134630;1294;22372;-80
2024/03/05 08:15:15;;;;;;;20.50;13.60;;;;;;;4.71;90.85;99948.09;134543;1301;22287;-80
2024/03/05 08:18:15;;;;;;;25.80;15.10;;;;;;;4.71;91.01;99956.17;134561;1301;22416;-81
2024/03/05 08:21:16;;;;;;;21.20;13.60;;;;;;;4.73;90.95;99955.18;134660;1301;22280;-80
2024/03/05 08:24:17;;;;;;;28.70;16.50;;;;;;;4.72;90.73;99959.99;134831;1292;22469;-80
2024/03/05 08:27:17;;;;;;;28.20;16.90;;;;;;;4.72;90.92;99959.14;134854;1299;22498;-80
2024/03/05 08:30:21;;;;;;;25.50;15.10;;;;;;;4.78;90.85;99959.10;134687;1300;22260;-81
2024/03/05 08:33:23;;;;;;;23.80;14.10;;;;;;;4.81;90.45;99955.91;134839;1300;22646;-80
2024/03/05 08:36:31;;;;;;;20.00;13.10;;;;;;;4.84;90.76;99956.52;134837;1298;23620;-81
2024/03/05 08:39:32;;;;;;;24.30;15.70;;;;;;;4.91;90.39;99954.63;134837;1292;22282;-81
2024/03/05 08:42:32;;;;;;;18.20;12.20;;;;;;;4.99;90.66;99957.79;134890;1295;22318;-80
2024/03/05 08:45:36;;;;;;;18.30;11.60;;;;;;;5.13;90.43;99960.95;134832;1295;22886;-81
2024/03/05 08:48:37;;;;;;;19.40;12.80;;;;;;;5.17;89.76;99964.08;134850;1292;22387;-81
2024/03/05 08:51:38;;;;;;;22.40;15.20;;;;;;;5.20;89.71;99963.36;134802;1292;22439;-80
2024/03/05 08:54:38;;;;;;;23.30;15.10;;;;;;;5.21;89.65;99968.70;134822;1292;22321;-80
2024/03/05 08:57:40;;;;;;;23.60;14.60;;;;;;;5.18;89.37;99973.27;134829;1300;22402;-81
2024/03/05 09:00:40;;;;;;;23.10;14.90;;;;;;;5.23;89.42;99973.91;134617;1296;22436;-82
2024/03/05 09:03:41;;;;;;;25.40;15.10;;;;;;;5.29;89.49;99971.65;134821;1293;22434;-82
2024/03/05 09:06:42;;;;;;;25.00;15.50;;;;;;;5.34;89.13;99974.17;134824;1298;22358;-83
2024/03/05 09:09:42;;;;;;;22.80;14.10;;;;;;;5.39;88.95;99974.20;134876;1289;22424;-81
2024/03/05 09:12:44;;;;;;;19.80;13.00;;;;;;;5.43;88.54;99980.26;134822;1292;22439;-81
2024/03/05 09:15:44;;;;;;;21.50;14.50;;;;;;;5.52;88.83;99981.52;134854;1292;22471;-82
2024/03/05 09:18:46;;;;;;;23.20;15.00;;;;;;;5.63;88.49;99977.75;134636;1300;22375;-81
2024/03/05 09:21:49;;;;;;;20.20;13.30;;;;;;;5.72;88.53;99982.48;134873;1300;22282;-82
2024/03/05 09:24:50;;;;;;;19.00;13.50;;;;;;;5.81;88.12;99980.93;134829;1296;22421;-79
2024/03/05 09:27:52;;;;;;;23.50;15.70;;;;;;;5.88;87.93;99980.23;134849;1300;22364;-81
2024/03/05 09:30:56;;;;;;;20.60;13.70;;;;;;;5.91;87.68;99976.30;134859;1289;23169;-81
2024/03/05 09:33:59;;;;;;;21.80;14.20;;;;;;;5.92;87.15;99982.81;134895;1293;23127;-82
2024/03/05 09:36:59;;;;;;;22.60;13.70;;;;;;;5.95;87.13;99984.33;134825;1293;22264;-81
2024/03/05 09:40:00;;;;;;;22.90;14.90;;;;;;;5.99;86.78;99984.27;134861;1295;23143;-81
2024/03/05 09:43:04;;;;;;;19.90;14.30;;;;;;;6.07;87.03;99984.16;134832;1299;22442;-82
2024/03/05 09:46:06;;;;;;;21.50;13.40;;;;;;;6.15;86.35;99982.67;134850;1291;22364;-83
2024/03/05 09:49:11;;;;;;;20.30;13.60;;;;;;;6.16;85.30;99984.30;134521;1298;22489;-83
2024/03/05 09:52:13;;;;;;;21.50;14.20;;;;;;;6.08;84.90;99982.63;134861;1300;22421;-83
2024/03/05 09:55:19;;;;;;;22.50;15.60;;;;;;;6.16;85.68;99981.67;134845;1299;22486;-84
2024/03/05 09:58:32;;;;;;;21.00;14.30;;;;;;;6.38;85.80;99977.36;134824;1300;22312;-82
2024/03/05 10:01:37;;;;;;;21.80;14.50;;;;;;;6.59;85.35;99983.67;134706;1300;180757;-83
2024/03/05 10:04:41;;;;;;;23.20;15.50;;;;;;;6.59;84.03;99979.45;134877;1292;22412;-83
2024/03/05 10:07:42;;;;;;;22.70;13.90;;;;;;;6.49;83.21;99983.00;134851;1295;22435;-83
2024/03/05 10:10:45;;;;;;;22.30;14.40;;;;;;;6.46;83.30;99984.91;134816;1295;22486;-82
2024/03/05 10:13:46;;;;;;;19.60;13.40;;;;;;;6.67;82.87;99984.16;134876;1297;22402;-83
2024/03/05 10:17:03;;;;;;;23.60;15.60;;;;;;;6.97;82.52;99985.73;134833;1295;23449;-82
2024/03/05 10:20:09;;;;;;;23.40;14.90;;;;;;;7.39;82.78;99987.94;134866;1300;22553;-83
2024/03/05 10:23:10;;;;;;;23.10;15.80;;;;;;;7.84;82.47;99985.98;134842;1300;22276;-82
2024/03/05 10:26:19;;;;;;;21.00;15.20;;;;;;;8.25;82.54;99992.71;134855;1300;22354;-82
2024/03/05 10:29:32;;;;;;;20.20;14.50;;;;;;;8.50;81.16;99988.70;134822;1295;22361;-82
2024/03/05 10:32:33;;;;;;;24.10;14.80;;;;;;;8.46;79.82;99991.92;134807;1293;22376;-82
2024/03/05 10:35:41;;;;;;;26.10;16.10;;;;;;;8.21;78.35;99991.70;134834;1300;22290;-83
2024/03/05 10:38:42;;;;;;;23.10;14.10;;;;;;;8.09;79.49;99992.53;134795;1292;24361;-80
2024/03/05 10:41:42;;;;;;;21.70;14.20;;;;;;;8.23;79.26;99993.06;134846;1294;22388;-82
2024/03/05 10:44:44;;;;;;;21.10;15.10;;;;;;;8.30;78.16;99994.09;134819;1296;22150;-82
2024/03/05 10:47:46;;;;;;;27.30;16.50;;;;;;;8.27;78.22;99997.98;134824;1300;22265;-83
2024/03/05 10:50:49;;;;;;;21.90;16.20;;;;;;;8.25;77.88;100002.16;134808;1300;22502;-81
2024/03/05 10:53:53;;;;;;;24.20;16.10;;;;;;;8.22;76.82;100004.91;134834;1300;22375;-82
2024/03/05 10:56:55;;;;;;;21.80;15.10;;;;;;;7.98;75.97;100004.75;134835;1295;22363;-83
2024/03/05 10:59:57;;;;;;;25.20;15.90;;;;;;;7.75;75.55;100002.27;134844;1300;22900;-82
2024/03/05 11:03:02;;;;;;;25.30;16.90;;;;;;;7.72;75.80;100003.08;134842;1297;22472;-82
2024/03/05 11:06:07;;;;;;;24.50;16.60;;;;;;;7.65;76.27;100002.14;134858;1300;23044;-82
2024/03/05 11:09:09;;;;;;;23.50;16.80;;;;;;;7.72;75.79;100003.58;134842;1298;22369;-82
2024/03/05 11:12:17;;;;;;;25.90;16.60;;;;;;;7.69;74.88;100004.61;134830;1300;22504;-83
2024/03/05 11:15:18;;;;;;;25.20;16.60;;;;;;;7.51;74.79;100008.09;134825;1295;23224;-82
2024/03/05 11:18:35;;;;;;;25.60;15.20;;;;;;;7.43;75.09;100008.38;134834;1298;22560;-83
2024/03/05 11:21:38;;;;;;;21.90;15.30;;;;;;;7.30;74.60;100011.38;134837;1298;22275;-83
2024/03/05 11:24:40;;;;;;;28.50;15.90;;;;;;;7.33;75.03;100011.83;134536;1282;22440;-83
2024/03/05 11:27:46;;;;;;;23.80;15.30;;;;;;;7.39;74.70;100012.20;134644;1298;22544;-83
2024/03/05 11:30:47;;;;;;;26.70;18.10;;;;;;;7.40;74.36;100013.23;134607;1295;22679;-82
2024/03/05 11:33:51;;;;;;;;;;;;;;;7.41;74.23;100015.76;134627;1294;22512;-83
2024/03/05 11:37:06;;;;;;;22.30;15.00;;;;;;;7.37;73.73;100016.69;134594;1291;22368;-83
2024/03/05 11:40:11;;;;;;;22.40;15.00;;;;;;;7.25;74.00;100022.05;134610;1297;22434;-83
2024/03/05 11:43:11;;;;;;;24.70;16.90;;;;;;;7.21;74.12;100023.02;134614;1295;23253;-82
2024/03/05 11:46:12;;;;;;;26.70;17.50;;;;;;;7.12;74.62;100023.64;134617;1294;22418;-83
2024/03/05 11:49:17;;;;;;;24.70;15.70;;;;;;;7.06;73.84;100025.45;134622;1295;23136;-83
2024/03/05 11:52:18;;;;;;;26.20;16.80;;;;;;;6.92;73.67;100031.76;134561;1301;22506;-82
2024/03/05 11:55:24;;;;;;;23.90;14.60;;;;;;;6.86;74.16;100036.04;134598;1301;22382;-83
2024/03/05 11:58:28;;;;;;;25.40;16.00;;;;;;;6.84;73.94;100037.08;134556;1294;22735;-83
2024/03/05 12:01:32;;;;;;;32.20;20.80;;;;;;;6.82;73.96;100036.04;134617;1295;22355;-83
2024/03/05 12:04:34;;;;;;;27.90;18.00;;;;;;;6.84;74.06;100036.02;134602;1297;23045;-83
2024/03/05 12:07:35;;;;;;;30.10;18.60;;;;;;;6.78;73.77;100040.95;134635;1295;22475;-83
2024/03/05 12:10:36;;;;;;;28.30;18.30;;;;;;;6.78;74.13;100041.56;134595;1294;22443;-83
2024/03/05 12:13:37;;;;;;;25.40;17.40;;;;;;;6.75;73.97;100042.64;134628;1294;22423;-83
2024/03/05 12:16:38;;;;;;;29.20;18.10;;;;;;;6.77;74.33;100043.83;134594;1294;22260;-84
2024/03/05 12:19:40;;;;;;;24.60;17.40;;;;;;;6.72;74.13;100045.54;134614;1295;23135;-83
2024/03/05 12:22:49;;;;;;;28.90;17.40;;;;;;;6.68;74.04;100050.27;134693;1294;22453;-83
2024/03/05 12:25:52;;;;;;;28.80;18.00;;;;;;;6.62;73.74;100051.82;134612;1297;23258;-83
2024/03/05 12:28:52;;;;;;;26.80;18.50;;;;;;;6.58;73.78;100053.40;134833;1295;22173;-83
2024/03/05 12:31:55;;;;;;;24.60;17.10;;;;;;;6.50;73.42;100060.45;134825;1292;22432;-82
2024/03/05 12:34:58;;;;;;;24.00;15.50;;;;;;;6.45;73.39;100060.23;134844;1300;22342;-83
2024/03/05 12:38:03;;;;;;;21.90;14.30;;;;;;;6.42;73.55;100061.55;134829;1295;22640;-84
2024/03/05 12:41:03;;;;;;;25.10;16.10;;;;;;;6.44;73.62;100059.92;134806;1298;22349;-84
2024/03/05 12:44:04;;;;;;;28.00;16.80;;;;;;;6.45;73.68;100064.92;134797;1294;22920;-83
2024/03/05 12:47:18;;;;;;;22.20;15.90;;;;;;;6.46;73.81;100063.40;134822;1300;22382;-83
2024/03/05 12:50:19;;;;;;;29.60;14.80;;;;;;;6.49;73.31;100066.11;134846;1296;22358;-83
2024/03/05 12:53:19;;;;;;;;;;;;;;;6.47;73.11;100067.19;134857;1298;23166;-84
2024/03/05 12:56:20;;;;;;;24.00;15.40;;;;;;;6.46;73.08;100068.86;134838;1295;22405;-84
2024/03/05 12:59:21;;;;;;;20.90;14.80;;;;;;;6.41;72.73;100068.98;134856;1296;22344;-84
2024/03/05 13:02:22;;;;;;;23.10;14.40;;;;;;;6.34;72.54;100067.91;134821;1300;22384;-83
2024/03/05 13:05:22;;;;;;;20.50;13.90;;;;;;;6.24;72.13;100064.41;134623;1300;23148;-82
2024/03/05 13:08:23;;;;;;;20.80;12.60;;;;;;;6.08;72.42;100064.63;134841;1293;22509;-83
2024/03/05 13:11:24;;;;;;;;;;;;;;;6.11;73.20;100068.94;134874;1296;23170;-83
2024/03/05 13:14:25;;;;;;;20.70;12.90;;;;;;;6.19;73.39;100069.20;134837;1299;23018;-83
2024/03/05 13:17:26;;;;;;;23.80;16.70;;;;;;;6.28;73.31;100073.88;134834;1298;22295;-83
2024/03/05 13:20:28;;;;;;;23.90;15.80;;;;;;;6.33;73.17;100075.23;134815;1301;22394;-83
2024/03/05 13:23:33;;;;;;;23.70;14.80;;;;;;;6.34;73.36;100078.25;134850;1298;22471;-84
2024/03/05 13:26:34;;;;;;;22.90;15.90;;;;;;;6.37;73.14;100080.77;134830;1300;22375;-84
2024/03/05 13:29:35;;;;;;;24.40;15.60;;;;;;;6.41;73.30;100081.87;134844;1288;22423;-78
2024/03/05 13:32:37;;;;;;;22.20;14.60;;;;;;;6.43;73.31;100083.40;134861;1300;22502;-81
2024/03/05 13:35:37;;;;;;;23.20;15.10;;;;;;;6.41;72.98;100083.07;134821;1293;23167;-81
2024/03/05 13:38:38;;;;;;;22.90;15.70;;;;;;;6.40;73.20;100089.48;134832;1289;22250;-81
2024/03/05 13:41:44;;;;;;;29.50;17.40;;;;;;;6.43;73.10;100089.37;134818;1295;22368;-80
2024/03/05 13:44:44;;;;;;;34.60;22.60;;;;;;;6.45;73.09;100093.73;134858;1299;23141;-81
2024/03/05 13:47:45;;;;;;;32.00;18.80;;;;;;;6.47;73.06;100095.18;134831;1300;22501;-80
2024/03/05 13:50:52;;;;;;;26.20;16.30;;;;;;;6.45;72.95;100094.32;134633;1300;23089;-79
2024/03/05 13:53:53;;;;;;;38.20;20.90;;;;;;;6.48;73.09;100098.57;134868;1298;22429;-79
2024/03/05 13:56:54;;;;;;;32.60;20.20;;;;;;;6.48;72.98;100101.24;134815;1300;22398;-79
2024/03/05 13:59:55;;;;;;;22.10;14.60;;;;;;;6.51;73.21;100101.62;134851;1293;22474;-79
2024/03/05 14:02:55;;;;;;;26.20;16.20;;;;;;;6.55;72.96;100102.35;134839;1293;22208;-79